sensor_id;sensor_type;location;lat;lon;timestamp;pressure;altitude;pressure_sealevel;temperature;humidity
5872;BME280;2962;51.312;7.378;2022-08-30T00:02:42;97891.88;;;16.15;100.00
5872;BME280;2962;51.312;7.378;2022-08-30T00:05:08;97889.91;;;16.12;100.00
5872;BME280;2962;51.312;7.378;2022-08-30T00:07:34;97892.28;;;16.03;100.00
5872;BME280;2962;51.312;7.378;2022-08-30T00:09:59;97890.69;;;16.02;100.00
5872;BME280;2962;51.312;7.378;2022-08-30T00:12:26;97887.19;;;16.01;100.00
5872;BME280;2962;51.312;7.378;2022-08-30T00:14:51;97891.47;;;16.09;100.00
5872;BME280;2962;51.312;7.378;2022-08-30T00:17:17;97889.50;;;16.17;100.00
5872;BME280;2962;51.312;7.378;2022-08-30T00:19:43;97879.31;;;16.18;100.00
5872;BME280;2962;51.312;7.378;2022-08-30T00:22:09;97876.53;;;16.21;100.00
5872;BME280;2962;51.312;7.378;2022-08-30T00:24:34;97872.63;;;16.26;100.00
5872;BME280;2962;51.312;7.378;2022-08-30T00:26:59;97860.44;;;16.27;100.00
5872;BME280;2962;51.312;7.378;2022-08-30T00:29:24;97872.59;;;16.29;100.00
5872;BME280;2962;51.312;7.378;2022-08-30T00:31:50;97866.75;;;16.24;100.00
5872;BME280;2962;51.312;7.378;2022-08-30T00:34:15;97860.88;;;16.15;100.00
5872;BME280;2962;51.312;7.378;2022-08-30T00:36:42;97856.53;;;16.06;100.00
5872;BME280;2962;51.312;7.378;2022-08-30T00:39:08;97869.91;;;16.04;100.00
5872;BME280;2962;51.312;7.378;2022-08-30T00:41:33;97858.91;;;15.94;100.00
5872;BME280;2962;51.312;7.378;2022-08-30T00:43:59;97867.94;;;15.98;100.00
5872;BME280;2962;51.312;7.378;2022-08-30T00:46:24;97868.72;;;15.95;100.00
5872;BME280;2962;51.312;7.378;2022-08-30T00:48:50;97879.72;;;15.91;100.00
5872;BME280;2962;51.312;7.378;2022-08-30T00:51:17;97873.06;;;15.85;100.00
5872;BME280;2962;51.312;7.378;2022-08-30T00:53:48;97869.53;;;15.88;100.00
5872;BME280;2962;51.312;7.378;2022-08-30T00:56:14;97866.00;;;15.84;100.00
5872;BME280;2962;51.312;7.378;2022-08-30T00:58:43;97871.88;;;15.93;100.00
5872;BME280;2962;51.312;7.378;2022-08-30T01:01:09;97872.66;;;15.97;100.00
5872;BME280;2962;51.312;7.378;2022-08-30T01:03:36;97878.94;;;15.87;100.00
5872;BME280;2962;51.312;7.378;2022-08-30T01:06:03;97879.31;;;15.85;100.00
5872;BME280;2962;51.312;7.378;2022-08-30T01:08:29;97884.81;;;15.85;100.00
5872;BME280;2962;51.312;7.378;2022-08-30T01:10:55;97875.81;;;15.85;100.00
5872;BME280;2962;51.312;7.378;2022-08-30T01:13:22;97873.44;;;15.83;100.00
5872;BME280;2962;51.312;7.378;2022-08-30T01:15:48;97877.34;;;15.75;100.00
5872;BME280;2962;51.312;7.378;2022-08-30T01:18:14;97874.22;;;15.66;100.00
5872;BME280;2962;51.312;7.378;2022-08-30T01:23:38;97878.13;;;15.61;100.00
5872;BME280;2962;51.312;7.378;2022-08-30T01:26:04;97880.44;;;15.49;100.00
5872;BME280;2962;51.312;7.378;2022-08-30T01:28:30;97876.91;;;15.55;100.00
5872;BME280;2962;51.312;7.378;2022-08-30T01:30:57;97871.41;;;15.52;100.00
5872;BME280;2962;51.312;7.378;2022-08-30T01:33:23;97862.41;;;15.48;100.00
5872;BME280;2962;51.312;7.378;2022-08-30T01:38:20;97878.84;;;15.44;100.00
5872;BME280;2962;51.312;7.378;2022-08-30T01:40:46;97873.38;;;15.41;100.00
5872;BME280;2962;51.312;7.378;2022-08-30T01:43:13;97870.25;;;15.42;100.00
5872;BME280;2962;51.312;7.378;2022-08-30T01:45:39;97876.53;;;15.46;100.00
5872;BME280;2962;51.312;7.378;2022-08-30T01:48:04;97878.88;;;15.51;100.00
5872;BME280;2962;51.312;7.378;2022-08-30T01:50:30;97882.03;;;15.50;100.00
5872;BME280;2962;51.312;7.378;2022-08-30T01:52:55;97886.72;;;15.49;100.00
5872;BME280;2962;51.312;7.378;2022-08-30T01:55:20;97878.50;;;15.53;100.00
5872;BME280;2962;51.312;7.378;2022-08-30T01:57:46;97883.19;;;15.56;100.00
5872;BME280;2962;51.312;7.378;2022-08-30T02:00:12;97882.81;;;15.61;100.00
5872;BME280;2962;51.312;7.378;2022-08-30T02:02:37;97886.34;;;15.54;100.00
5872;BME280;2962;51.312;7.378;2022-08-30T02:05:04;97883.59;;;15.61;100.00
5872;BME280;2962;51.312;7.378;2022-08-30T02:07:30;97883.59;;;15.61;100.00
5872;BME280;2962;51.312;7.378;2022-08-30T02:09:55;97885.56;;;15.57;100.00
5872;BME280;2962;51.312;7.378;2022-08-30T02:12:21;97887.53;;;15.60;100.00
5872;BME280;2962;51.312;7.378;2022-08-30T02:14:46;97882.03;;;15.53;100.00
5872;BME280;2962;51.312;7.378;2022-08-30T02:17:14;97879.28;;;15.50;100.00
5872;BME280;2962;51.312;7.378;2022-08-30T02:19:39;97886.72;;;15.46;100.00
5872;BME280;2962;51.312;7.378;2022-08-30T02:22:06;97878.88;;;15.51;100.00
5872;BME280;2962;51.312;7.378;2022-08-30T02:24:31;97863.97;;;15.52;100.00
5872;BME280;2962;51.312;7.378;2022-08-30T02:26:57;97879.69;;;15.62;100.00
5872;BME280;2962;51.312;7.378;2022-08-30T02:29:22;97874.97;;;15.59;100.00
5872;BME280;2962;51.312;7.378;2022-08-30T02:31:48;97876.91;;;15.55;100.00
5872;BME280;2962;51.312;7.378;2022-08-30T02:34:14;97875.38;;;15.58;100.00
5872;BME280;2962;51.312;7.378;2022-08-30T02:36:40;97878.47;;;15.56;100.00
5872;BME280;2962;51.312;7.378;2022-08-30T02:39:07;97878.50;;;15.63;100.00
5872;BME280;2962;51.312;7.378;2022-08-30T02:41:33;97869.47;;;15.56;100.00
5872;BME280;2962;51.312;7.378;2022-08-30T02:43:58;97870.25;;;15.53;100.00
5872;BME280;2962;51.312;7.378;2022-08-30T02:46:25;97870.25;;;15.56;100.00
5872;BME280;2962;51.312;7.378;2022-08-30T02:48:50;97873.00;;;15.49;100.00
5872;BME280;2962;51.312;7.378;2022-08-30T02:51:16;97872.19;;;15.52;100.00
5872;BME280;2962;51.312;7.378;2022-08-30T02:53:42;97866.34;;;15.57;100.00
5872;BME280;2962;51.312;7.378;2022-08-30T02:56:08;97865.94;;;15.59;100.00
5872;BME280;2962;51.312;7.378;2022-08-30T02:58:34;97865.94;;;15.62;100.00
5872;BME280;2962;51.312;7.378;2022-08-30T03:00:59;97865.94;;;15.62;100.00
5872;BME280;2962;51.312;7.378;2022-08-30T03:03:25;97859.72;;;15.66;100.00
5872;BME280;2962;51.312;7.378;2022-08-30T03:05:51;97866.72;;;15.63;100.00
5872;BME280;2962;51.312;7.378;2022-08-30T03:08:16;97863.19;;;15.59;100.00
5872;BME280;2962;51.312;7.378;2022-08-30T03:10:41;97861.22;;;15.63;100.00
5872;BME280;2962;51.312;7.378;2022-08-30T03:13:07;97862.44;;;15.66;100.00
5872;BME280;2962;51.312;7.378;2022-08-30T03:15:34;97861.66;;;15.65;100.00
5872;BME280;2962;51.312;7.378;2022-08-30T03:17:59;97858.47;;;15.56;100.00
5872;BME280;2962;51.312;7.378;2022-08-30T03:20:25;97860.84;;;15.50;100.00
5872;BME280;2962;51.312;7.378;2022-08-30T03:22:50;97856.91;;;15.51;100.00
5872;BME280;2962;51.312;7.378;2022-08-30T03:25:16;97871.03;;;15.53;100.00
5872;BME280;2962;51.312;7.378;2022-08-30T03:27:42;97857.69;;;15.48;100.00
5872;BME280;2962;51.312;7.378;2022-08-30T03:30:08;97845.13;;;15.47;100.00
5872;BME280;2962;51.312;7.378;2022-08-30T03:32:34;97854.56;;;15.46;100.00
5872;BME280;2962;51.312;7.378;2022-08-30T03:34:59;97852.63;;;15.65;100.00
5872;BME280;2962;51.312;7.378;2022-08-30T03:37:25;97846.75;;;15.70;100.00
5872;BME280;2962;51.312;7.378;2022-08-30T03:39:52;97842.44;;;15.65;100.00
5872;BME280;2962;51.312;7.378;2022-08-30T03:42:17;97850.69;;;15.72;100.00
5872;BME280;2962;51.312;7.378;2022-08-30T03:44:42;97853.41;;;15.76;100.00
5872;BME280;2962;51.312;7.378;2022-08-30T03:47:08;97858.94;;;15.72;100.00
5872;BME280;2962;51.312;7.378;2022-08-30T03:49:33;97849.88;;;15.75;100.00
5872;BME280;2962;51.312;7.378;2022-08-30T03:51:59;97849.88;;;15.72;100.00
5872;BME280;2962;51.312;7.378;2022-08-30T03:54:24;97848.72;;;15.69;100.00
5872;BME280;2962;51.312;7.378;2022-08-30T03:56:49;97843.22;;;15.69;100.00
5872;BME280;2962;51.312;7.378;2022-08-30T03:59:15;97845.97;;;15.73;100.00
5872;BME280;2962;51.312;7.378;2022-08-30T04:01:40;97855.78;;;15.67;100.00
5872;BME280;2962;51.312;7.378;2022-08-30T04:04:10;97858.13;;;15.75;100.00
5872;BME280;2962;51.312;7.378;2022-08-30T04:06:35;97849.50;;;15.70;100.00
5872;BME280;2962;51.312;7.378;2022-08-30T04:09:01;97854.56;;;15.64;100.00
5872;BME280;2962;51.312;7.378;2022-08-30T04:11:26;97838.47;;;15.55;100.00
5872;BME280;2962;51.312;7.378;2022-08-30T04:13:52;97858.47;;;15.52;100.00
5872;BME280;2962;51.312;7.378;2022-08-30T04:16:19;97848.28;;;15.42;100.00
5872;BME280;2962;51.312;7.378;2022-08-30T04:18:45;97854.94;;;15.41;100.00
5872;BME280;2962;51.312;7.378;2022-08-30T04:21:10;97858.47;;;15.38;100.00
5872;BME280;2962;51.312;7.378;2022-08-30T04:23:35;97851.41;;;15.26;100.00
5872;BME280;2962;51.312;7.378;2022-08-30T04:26:01;97863.53;;;15.29;100.00
5872;BME280;2962;51.312;7.378;2022-08-30T04:28:26;97867.44;;;15.17;100.00
5872;BME280;2962;51.312;7.378;2022-08-30T04:30:51;97869.81;;;15.19;100.00
5872;BME280;2962;51.312;7.378;2022-08-30T04:33:17;97862.34;;;15.16;100.00
5872;BME280;2962;51.312;7.378;2022-08-30T04:35:44;97857.63;;;15.16;100.00
5872;BME280;2962;51.312;7.378;2022-08-30T04:38:10;97854.47;;;15.14;100.00
5872;BME280;2962;51.312;7.378;2022-08-30T04:40:37;97861.53;;;15.04;100.00
5872;BME280;2962;51.312;7.378;2022-08-30T04:43:03;97862.28;;;14.98;100.00
5872;BME280;2962;51.312;7.378;2022-08-30T04:45:28;97870.16;;;15.03;100.00
5872;BME280;2962;51.312;7.378;2022-08-30T04:47:54;97866.19;;;14.97;100.00
5872;BME280;2962;51.312;7.378;2022-08-30T04:50:20;97866.56;;;14.88;100.00
5872;BME280;2962;51.312;7.378;2022-08-30T04:52:46;97867.75;;;14.94;100.00
5872;BME280;2962;51.312;7.378;2022-08-30T04:55:12;97874.41;;;14.89;100.00
5872;BME280;2962;51.312;7.378;2022-08-30T04:57:38;97877.56;;;14.92;100.00
5872;BME280;2962;51.312;7.378;2022-08-30T05:00:06;97866.97;;;14.97;100.00
5872;BME280;2962;51.312;7.378;2022-08-30T05:02:32;97870.91;;;14.93;100.00
5872;BME280;2962;51.312;7.378;2022-08-30T05:04:58;97864.66;;;15.03;100.00
5872;BME280;2962;51.312;7.378;2022-08-30T05:07:42;97882.28;;;15.02;100.00
5872;BME280;2962;51.312;7.378;2022-08-30T05:10:07;97879.91;;;14.97;100.00
5872;BME280;2962;51.312;7.378;2022-08-30T05:12:33;97879.88;;;14.89;100.00
5872;BME280;2962;51.312;7.378;2022-08-30T05:14:58;97877.97;;;14.97;100.00
5872;BME280;2962;51.312;7.378;2022-08-30T05:17:24;97887.41;;;15.03;100.00
5872;BME280;2962;51.312;7.378;2022-08-30T05:19:50;97890.53;;;15.05;100.00
5872;BME280;2962;51.312;7.378;2022-08-30T05:22:15;97888.97;;;15.08;100.00
5872;BME280;2962;51.312;7.378;2022-08-30T05:24:40;97885.84;;;15.09;100.00
5872;BME280;2962;51.312;7.378;2022-08-30T05:27:06;97888.59;;;15.17;100.00
5872;BME280;2962;51.312;7.378;2022-08-30T05:29:31;97896.88;;;15.24;100.00
5872;BME280;2962;51.312;7.378;2022-08-30T05:31:57;97908.63;;;15.28;100.00
5872;BME280;2962;51.312;7.378;2022-08-30T05:34:23;97905.50;;;15.33;100.00
5872;BME280;2962;51.312;7.378;2022-08-30T05:36:48;97905.16;;;15.38;100.00
5872;BME280;2962;51.312;7.378;2022-08-30T05:39:14;97907.53;;;15.50;100.00
5872;BME280;2962;51.312;7.378;2022-08-30T05:41:39;97897.72;;;15.53;100.00
5872;BME280;2962;51.312;7.378;2022-08-30T05:44:09;97907.56;;;15.72;100.00
5872;BME280;2962;51.312;7.378;2022-08-30T05:46:35;97911.91;;;15.80;100.00
5872;BME280;2962;51.312;7.378;2022-08-30T05:49:03;97914.25;;;15.81;100.00
5872;BME280;2962;51.312;7.378;2022-08-30T05:51:30;97917.81;;;15.89;100.00
5872;BME280;2962;51.312;7.378;2022-08-30T05:53:58;97912.69;;;15.91;100.00
5872;BME280;2962;51.312;7.378;2022-08-30T05:56:30;97919.38;;;15.90;100.00
5872;BME280;2962;51.312;7.378;2022-08-30T05:58:56;97908.00;;;15.88;100.00
5872;BME280;2962;51.312;7.378;2022-08-30T06:01:30;97916.63;;;15.97;100.00
5872;BME280;2962;51.312;7.378;2022-08-30T06:03:58;97913.88;;;15.90;100.00
5872;BME280;2962;51.312;7.378;2022-08-30T06:06:28;97912.69;;;15.91;100.00
5872;BME280;2962;51.312;7.378;2022-08-30T06:08:54;97911.50;;;16.10;100.00
5872;BME280;2962;51.312;7.378;2022-08-30T06:11:22;97914.25;;;16.17;100.00
5872;BME280;2962;51.312;7.378;2022-08-30T06:13:48;97910.31;;;16.25;100.00
5872;BME280;2962;51.312;7.378;2022-08-30T06:16:19;97912.69;;;16.20;100.00
5872;BME280;2962;51.312;7.378;2022-08-30T06:18:45;97909.94;;;16.23;100.00
5872;BME280;2962;51.312;7.378;2022-08-30T06:21:19;97918.56;;;16.22;100.00
5872;BME280;2962;51.312;7.378;2022-08-30T06:23:45;97916.63;;;16.15;100.00
5872;BME280;2962;51.312;7.378;2022-08-30T06:26:11;97913.47;;;16.31;100.00
5872;BME280;2962;51.312;7.378;2022-08-30T06:28:37;97916.59;;;16.33;100.00
5872;BME280;2962;51.312;7.378;2022-08-30T06:31:06;97909.94;;;16.30;100.00
5872;BME280;2962;51.312;7.378;2022-08-30T06:33:33;97895.78;;;16.28;100.00
5872;BME280;2962;51.312;7.378;2022-08-30T06:36:10;97912.69;;;16.38;100.00
5872;BME280;2962;51.312;7.378;2022-08-30T06:38:35;97918.56;;;16.36;100.00
5872;BME280;2962;51.312;7.378;2022-08-30T06:41:08;97927.56;;;16.54;100.00
5872;BME280;2962;51.312;7.378;2022-08-30T06:43:34;97918.88;;;16.70;100.00
5872;BME280;2962;51.312;7.378;2022-08-30T06:46:01;97921.22;;;16.90;100.00
5872;BME280;2962;51.312;7.378;2022-08-30T06:48:27;97901.53;;;16.98;100.00
5872;BME280;2962;51.312;7.378;2022-08-30T06:50:53;97897.53;;;17.06;100.00
5872;BME280;2962;51.312;7.378;2022-08-30T06:53:18;97900.66;;;17.16;100.00
5872;BME280;2962;51.312;7.378;2022-08-30T06:55:44;97901.00;;;17.25;100.00
5872;BME280;2962;51.312;7.378;2022-08-30T06:58:09;97908.31;;;17.56;100.00
5872;BME280;2962;51.312;7.378;2022-08-30T07:00:34;97902.75;;;17.64;100.00
5872;BME280;2962;51.312;7.378;2022-08-30T07:02:59;97913.69;;;17.81;100.00
5872;BME280;2962;51.312;7.378;2022-08-30T07:05:26;97908.47;;;17.91;100.00
5872;BME280;2962;51.312;7.378;2022-08-30T07:07:52;97913.50;;;18.07;100.00
5872;BME280;2962;51.312;7.378;2022-08-30T07:10:18;97907.03;;;18.24;100.00
5872;BME280;2962;51.312;7.378;2022-08-30T07:12:46;97902.47;;;18.07;100.00
5872;BME280;2962;51.312;7.378;2022-08-30T07:15:12;97902.28;;;18.28;100.00
5872;BME280;2962;51.312;7.378;2022-08-30T07:17:37;97903.97;;;18.15;100.00
5872;BME280;2962;51.312;7.378;2022-08-30T07:20:21;97910.19;;;18.26;100.00
5872;BME280;2962;51.312;7.378;2022-08-30T07:22:47;97916.41;;;18.34;100.00
5872;BME280;2962;51.312;7.378;2022-08-30T07:25:13;97911.78;;;18.65;100.00
5872;BME280;2962;51.312;7.378;2022-08-30T07:27:39;97910.16;;;18.67;100.00
5872;BME280;2962;51.312;7.378;2022-08-30T07:30:06;97909.41;;;18.63;100.00
5872;BME280;2962;51.312;7.378;2022-08-30T07:32:47;97911.91;;;18.92;100.00
5872;BME280;2962;51.312;7.378;2022-08-30T07:35:13;97908.81;;;18.83;100.00
5872;BME280;2962;51.312;7.378;2022-08-30T07:37:38;97913.69;;;18.71;100.00
5872;BME280;2962;51.312;7.378;2022-08-30T07:40:04;97917.88;;;18.83;100.00
5872;BME280;2962;51.312;7.378;2022-08-30T07:42:30;97908.13;;;18.75;100.00
5872;BME280;2962;51.312;7.378;2022-08-30T07:44:55;97922.06;;;18.98;100.00
5872;BME280;2962;51.312;7.378;2022-08-30T07:47:20;97915.03;;;19.24;100.00
5872;BME280;2962;51.312;7.378;2022-08-30T07:49:46;97906.59;;;19.66;100.00
5872;BME280;2962;51.312;7.378;2022-08-30T07:52:11;97913.47;;;19.81;100.00
5872;BME280;2962;51.312;7.378;2022-08-30T07:54:36;97905.09;;;19.88;100.00
5872;BME280;2962;51.312;7.378;2022-08-30T07:57:02;97908.53;;;19.69;100.00
5872;BME280;2962;51.312;7.378;2022-08-30T07:59:27;97901.22;;;19.82;100.00
5872;BME280;2962;51.312;7.378;2022-08-30T08:01:53;97906.75;;;20.06;100.00
5872;BME280;2962;51.312;7.378;2022-08-30T08:04:18;97910.75;;;20.05;100.00
5872;BME280;2962;51.312;7.378;2022-08-30T08:06:43;97923.91;;;19.97;100.00
5872;BME280;2962;51.312;7.378;2022-08-30T08:09:09;97921.41;;;20.30;100.00
5872;BME280;2962;51.312;7.378;2022-08-30T08:11:35;97917.88;;;20.53;100.00
5872;BME280;2962;51.312;7.378;2022-08-30T08:14:02;97927.00;;;20.50;100.00
5872;BME280;2962;51.312;7.378;2022-08-30T08:16:29;97927.72;;;20.54;100.00
5872;BME280;2962;51.312;7.378;2022-08-30T08:18:55;97926.28;;;20.45;100.00
5872;BME280;2962;51.312;7.378;2022-08-30T08:21:22;97928.34;;;19.91;100.00
5872;BME280;2962;51.312;7.378;2022-08-30T08:23:48;97921.97;;;19.67;100.00
5872;BME280;2962;51.312;7.378;2022-08-30T08:26:13;97922.81;;;19.64;100.00
5872;BME280;2962;51.312;7.378;2022-08-30T08:28:38;97927.78;;;20.03;100.00
5872;BME280;2962;51.312;7.378;2022-08-30T08:31:16;97933.72;;;20.25;100.00
5872;BME280;2962;51.312;7.378;2022-08-30T08:33:42;97935.97;;;20.34;100.00
5872;BME280;2962;51.312;7.378;2022-08-30T08:36:08;97927.78;;;20.50;100.00
5872;BME280;2962;51.312;7.378;2022-08-30T08:38:33;97930.72;;;20.39;100.00
5872;BME280;2962;51.312;7.378;2022-08-30T08:41:06;97927.72;;;20.30;100.00
5872;BME280;2962;51.312;7.378;2022-08-30T08:43:35;97922.84;;;20.14;100.00
5872;BME280;2962;51.312;7.378;2022-08-30T08:48:50;97926.44;;;20.35;100.00
5872;BME280;2962;51.312;7.378;2022-08-30T08:51:23;97934.38;;;20.56;100.00
5872;BME280;2962;51.312;7.378;2022-08-30T08:56:41;97930.47;;;21.17;100.00
5872;BME280;2962;51.312;7.378;2022-08-30T08:59:08;97932.06;;;21.38;100.00
5872;BME280;2962;51.312;7.378;2022-08-30T09:01:35;97933.25;;;21.37;100.00
5872;BME280;2962;51.312;7.378;2022-08-30T09:04:08;97941.88;;;21.59;100.00
5872;BME280;2962;51.312;7.378;2022-08-30T09:09:28;97942.44;;;21.70;100.00
5872;BME280;2962;51.312;7.378;2022-08-30T09:11:55;97935.09;;;21.43;100.00
5872;BME280;2962;51.312;7.378;2022-08-30T09:14:24;97935.88;;;21.44;100.00
5872;BME280;2962;51.312;7.378;2022-08-30T09:16:53;97935.50;;;21.94;100.00
5872;BME280;2962;51.312;7.378;2022-08-30T09:22:04;97943.72;;;22.18;100.00
5872;BME280;2962;51.312;7.378;2022-08-30T09:25:00;97943.34;;;21.83;100.00
5872;BME280;2962;51.312;7.378;2022-08-30T09:27:31;97938.91;;;22.02;100.00
5872;BME280;2962;51.312;7.378;2022-08-30T09:30:00;97939.25;;;21.88;100.00
5872;BME280;2962;51.312;7.378;2022-08-30T09:32:38;97940.22;;;21.98;100.00
5872;BME280;2962;51.312;7.378;2022-08-30T09:35:07;97939.72;;;21.66;100.00
5872;BME280;2962;51.312;7.378;2022-08-30T09:37:55;97940.31;;;22.10;100.00
5872;BME280;2962;51.312;7.378;2022-08-30T09:40:34;97941.81;;;22.93;100.00
5872;BME280;2962;51.312;7.378;2022-08-30T09:45:47;97940.50;;;23.39;100.00
5872;BME280;2962;51.312;7.378;2022-08-30T09:48:40;97932.22;;;23.10;100.00
5872;BME280;2962;51.312;7.378;2022-08-30T09:56:29;97931.22;;;22.42;100.00
5872;BME280;2962;51.312;7.378;2022-08-30T09:59:21;97937.81;;;22.16;100.00
5872;BME280;2962;51.312;7.378;2022-08-30T10:01:57;97931.69;;;21.72;100.00
5872;BME280;2962;51.312;7.378;2022-08-30T10:07:09;97932.25;;;22.49;100.00
5872;BME280;2962;51.312;7.378;2022-08-30T10:09:50;97919.47;;;23.38;100.00
5872;BME280;2962;51.312;7.378;2022-08-30T10:12:41;97922.34;;;23.35;100.00
5872;BME280;2962;51.312;7.378;2022-08-30T10:18:02;97918.63;;;22.83;100.00
5872;BME280;2962;51.312;7.378;2022-08-30T10:20:37;97913.44;;;23.14;100.00
5872;BME280;2962;51.312;7.378;2022-08-30T10:23:18;97917.47;;;23.52;100.00
5872;BME280;2962;51.312;7.378;2022-08-30T10:25:50;97911.53;;;23.92;100.00
5872;BME280;2962;51.312;7.378;2022-08-30T10:28:35;97919.66;;;23.99;100.00
5872;BME280;2962;51.312;7.378;2022-08-30T10:31:10;97907.59;;;24.02;100.00
5872;BME280;2962;51.312;7.378;2022-08-30T10:33:47;97911.59;;;23.62;100.00
5872;BME280;2962;51.312;7.378;2022-08-30T10:36:18;97901.97;;;23.80;100.00
5872;BME280;2962;51.312;7.378;2022-08-30T10:38:48;97904.00;;;24.40;100.00
5872;BME280;2962;51.312;7.378;2022-08-30T10:41:42;97922.25;;;24.53;100.00
5872;BME280;2962;51.312;7.378;2022-08-30T10:44:16;97912.38;;;23.50;100.00
5872;BME280;2962;51.312;7.378;2022-08-30T10:47:59;97917.06;;;23.66;100.00
5872;BME280;2962;51.312;7.378;2022-08-30T10:50:09;97913.38;;;23.56;100.00
5872;BME280;2962;51.312;7.378;2022-08-30T10:52:47;97913.72;;;23.46;100.00
5872;BME280;2962;51.312;7.378;2022-08-30T10:55:29;97919.53;;;23.90;100.00
5872;BME280;2962;51.312;7.378;2022-08-30T10:58:05;97907.41;;;23.83;100.00
5872;BME280;2962;51.312;7.378;2022-08-30T11:00:39;97913.94;;;24.63;100.00
5872;BME280;2962;51.312;7.378;2022-08-30T11:03:28;97916.66;;;24.53;100.00
5872;BME280;2962;51.312;7.378;2022-08-30T11:06:10;97910.78;;;24.39;100.00
5872;BME280;2962;51.312;7.378;2022-08-30T11:08:57;97906.56;;;24.21;100.00
5872;BME280;2962;51.312;7.378;2022-08-30T11:14:30;97906.72;;;24.87;100.00
5872;BME280;2962;51.312;7.378;2022-08-30T11:16:58;97915.66;;;25.04;100.00
5872;BME280;2962;51.312;7.378;2022-08-30T11:19:28;97918.25;;;25.73;100.00
5872;BME280;2962;51.312;7.378;2022-08-30T11:22:15;97901.38;;;26.26;100.00
5872;BME280;2962;51.312;7.378;2022-08-30T11:25:01;97908.09;;;27.21;99.19
5872;BME280;2962;51.312;7.378;2022-08-30T11:27:54;97897.84;;;27.79;90.16
5872;BME280;2962;51.312;7.378;2022-08-30T11:35:50;97906.88;;;29.03;78.63
5872;BME280;2962;51.312;7.378;2022-08-30T11:49:02;97898.31;;;28.97;73.93
5872;BME280;2962;51.312;7.378;2022-08-30T12:02:44;97895.31;;;30.86;57.05
5872;BME280;2962;51.312;7.378;2022-08-30T12:10:52;97886.41;;;29.91;60.86
5872;BME280;2962;51.312;7.378;2022-08-30T12:16:04;97889.06;;;29.35;61.90
5872;BME280;2962;51.312;7.378;2022-08-30T12:18:48;97892.31;;;30.49;56.74
5872;BME280;2962;51.312;7.378;2022-08-30T12:21:27;97889.56;;;30.34;55.08
5872;BME280;2962;51.312;7.378;2022-08-30T12:24:45;97891.47;;;30.43;54.91
5872;BME280;2962;51.312;7.378;2022-08-30T12:29:54;97891.41;;;30.57;52.87
5872;BME280;2962;51.312;7.378;2022-08-30T12:32:20;97887.91;;;30.83;53.85
5872;BME280;2962;51.312;7.378;2022-08-30T12:34:56;97878.63;;;31.03;50.33
5872;BME280;2962;51.312;7.378;2022-08-30T12:37:30;97884.38;;;30.47;51.95
5872;BME280;2962;51.312;7.378;2022-08-30T12:40:17;97867.13;;;31.96;47.28
5872;BME280;2962;51.312;7.378;2022-08-30T12:42:59;97873.03;;;31.60;46.90
5872;BME280;2962;51.312;7.378;2022-08-30T12:45:31;97873.63;;;32.13;46.61
5872;BME280;2962;51.312;7.378;2022-08-30T12:48:02;97864.44;;;32.24;44.80
5872;BME280;2962;51.312;7.378;2022-08-30T12:50:52;97860.31;;;32.73;43.50
5872;BME280;2962;51.312;7.378;2022-08-30T12:53:30;97865.84;;;33.44;41.85
5872;BME280;2962;51.312;7.378;2022-08-30T13:01:30;97863.50;;;33.43;41.51
5872;BME280;2962;51.312;7.378;2022-08-30T13:04:09;97848.63;;;33.48;39.97
5872;BME280;2962;51.312;7.378;2022-08-30T13:11:58;97856.44;;;32.60;42.19
5872;BME280;2962;51.312;7.378;2022-08-30T13:14:37;97859.34;;;32.28;42.07
5872;BME280;2962;51.312;7.378;2022-08-30T13:19:58;97858.53;;;32.16;42.25
5872;BME280;2962;51.312;7.378;2022-08-30T13:22:29;97852.56;;;32.57;42.62
5872;BME280;2962;51.312;7.378;2022-08-30T13:24:56;97855.31;;;33.34;39.46
5872;BME280;2962;51.312;7.378;2022-08-30T13:27:22;97844.22;;;32.96;40.15
5872;BME280;2962;51.312;7.378;2022-08-30T13:29:48;97852.72;;;32.37;40.99
5872;BME280;2962;51.312;7.378;2022-08-30T13:32:13;97847.50;;;31.75;42.65
5872;BME280;2962;51.312;7.378;2022-08-30T13:34:40;97849.56;;;32.18;42.81
5872;BME280;2962;51.312;7.378;2022-08-30T13:37:06;97853.44;;;32.26;41.92
5872;BME280;2962;51.312;7.378;2022-08-30T13:39:34;97844.13;;;31.34;45.14
5872;BME280;2962;51.312;7.378;2022-08-30T13:41:59;97849.00;;;31.71;44.30
5872;BME280;2962;51.312;7.378;2022-08-30T13:44:24;97837.50;;;32.12;42.71
5872;BME280;2962;51.312;7.378;2022-08-30T13:46:53;97846.47;;;32.81;40.07
5872;BME280;2962;51.312;7.378;2022-08-30T13:49:26;97852.63;;;32.85;40.46
5872;BME280;2962;51.312;7.378;2022-08-30T13:51:52;97849.72;;;32.51;40.72
5872;BME280;2962;51.312;7.378;2022-08-30T13:54:18;97841.25;;;32.46;40.83
5872;BME280;2962;51.312;7.378;2022-08-30T13:56:50;97842.28;;;31.94;41.57
5872;BME280;2962;51.312;7.378;2022-08-30T13:59:17;97837.75;;;32.85;39.72
5872;BME280;2962;51.312;7.378;2022-08-30T14:01:43;97839.38;;;33.19;38.58
5872;BME280;2962;51.312;7.378;2022-08-30T14:04:08;97840.91;;;33.76;37.77
5872;BME280;2962;51.312;7.378;2022-08-30T14:06:33;97826.97;;;34.01;37.55
5872;BME280;2962;51.312;7.378;2022-08-30T14:08:59;97833.56;;;34.32;36.27
5872;BME280;2962;51.312;7.378;2022-08-30T14:11:24;97844.38;;;34.86;35.81
5872;BME280;2962;51.312;7.378;2022-08-30T14:13:50;97833.09;;;34.74;35.91
5872;BME280;2962;51.312;7.378;2022-08-30T14:16:15;97840.63;;;36.66;32.76
5872;BME280;2962;51.312;7.378;2022-08-30T14:18:41;97827.34;;;36.12;32.02
5872;BME280;2962;51.312;7.378;2022-08-30T14:21:06;97827.28;;;35.93;32.44
5872;BME280;2962;51.312;7.378;2022-08-30T14:23:31;97837.22;;;35.51;32.96
5872;BME280;2962;51.312;7.378;2022-08-30T14:25:57;97835.94;;;35.16;33.42
5872;BME280;2962;51.312;7.378;2022-08-30T14:28:25;97825.78;;;34.96;33.46
5872;BME280;2962;51.312;7.378;2022-08-30T14:30:53;97827.16;;;35.19;32.86
5872;BME280;2962;51.312;7.378;2022-08-30T14:33:19;97825.50;;;35.35;32.57
5872;BME280;2962;51.312;7.378;2022-08-30T14:35:44;97824.00;;;33.60;34.79
5872;BME280;2962;51.312;7.378;2022-08-30T14:38:09;97819.81;;;33.77;34.23
5872;BME280;2962;51.312;7.378;2022-08-30T14:40:35;97818.22;;;34.10;34.44
5872;BME280;2962;51.312;7.378;2022-08-30T14:43:00;97816.19;;;35.10;33.21
5872;BME280;2962;51.312;7.378;2022-08-30T14:45:25;97834.75;;;35.06;32.91
5872;BME280;2962;51.312;7.378;2022-08-30T14:47:51;97828.03;;;34.62;33.04